sensor_id;sensor_type;location;lat;lon;timestamp;P1;durP1;ratioP1;P2;durP2;ratioP2
67597;SDS011;62026;39.230;9.122;2023-04-01T00:01:04;8.77;;;2.85;;
67597;SDS011;62026;39.230;9.122;2023-04-01T00:03:31;11.48;;;3.83;;
67597;SDS011;62026;39.230;9.122;2023-04-01T00:05:59;11.00;;;2.92;;
67597;SDS011;62026;39.230;9.122;2023-04-01T00:08:26;13.15;;;3.17;;
67597;SDS011;62026;39.230;9.122;2023-04-01T00:10:53;14.63;;;3.58;;
67597;SDS011;62026;39.230;9.122;2023-04-01T00:13:20;9.25;;;3.28;;
67597;SDS011;62026;39.230;9.122;2023-04-01T00:15:47;12.20;;;3.60;;
67597;SDS011;62026;39.230;9.122;2023-04-01T00:18:14;11.88;;;3.47;;
67597;SDS011;62026;39.230;9.122;2023-04-01T00:20:44;7.32;;;3.05;;
67597;SDS011;62026;39.230;9.122;2023-04-01T00:23:15;12.18;;;2.83;;
67597;SDS011;62026;39.230;9.122;2023-04-01T00:25:43;8.88;;;3.05;;
67597;SDS011;62026;39.230;9.122;2023-04-01T00:28:12;13.05;;;3.05;;
67597;SDS011;62026;39.230;9.122;2023-04-01T00:30:38;7.45;;;2.90;;
67597;SDS011;62026;39.230;9.122;2023-04-01T00:33:04;9.07;;;2.72;;
67597;SDS011;62026;39.230;9.122;2023-04-01T00:35:30;8.65;;;2.70;;
67597;SDS011;62026;39.230;9.122;2023-04-01T00:37:57;10.63;;;3.40;;
67597;SDS011;62026;39.230;9.122;2023-04-01T00:42:50;10.45;;;3.35;;
67597;SDS011;62026;39.230;9.122;2023-04-01T00:45:27;7.75;;;2.88;;
67597;SDS011;62026;39.230;9.122;2023-04-01T00:50:42;11.55;;;3.45;;
67597;SDS011;62026;39.230;9.122;2023-04-01T00:53:33;13.25;;;3.60;;
67597;SDS011;62026;39.230;9.122;2023-04-01T00:56:24;13.00;;;3.08;;
67597;SDS011;62026;39.230;9.122;2023-04-01T00:59:02;10.98;;;3.20;;
67597;SDS011;62026;39.230;9.122;2023-04-01T01:01:36;13.30;;;2.97;;
67597;SDS011;62026;39.230;9.122;2023-04-01T01:04:03;10.63;;;3.28;;
67597;SDS011;62026;39.230;9.122;2023-04-01T01:06:38;13.10;;;3.45;;
67597;SDS011;62026;39.230;9.122;2023-04-01T01:15:26;11.05;;;3.17;;
67597;SDS011;62026;39.230;9.122;2023-04-01T01:24:07;8.60;;;2.70;;
67597;SDS011;62026;39.230;9.122;2023-04-01T01:27:18;11.40;;;3.20;;
67597;SDS011;62026;39.230;9.122;2023-04-01T01:36:16;10.15;;;2.58;;
67597;SDS011;62026;39.230;9.122;2023-04-01T01:38:46;10.30;;;2.92;;
67597;SDS011;62026;39.230;9.122;2023-04-01T01:41:15;11.05;;;3.40;;
67597;SDS011;62026;39.230;9.122;2023-04-01T01:43:46;10.35;;;3.00;;
67597;SDS011;62026;39.230;9.122;2023-04-01T01:46:20;8.98;;;3.38;;
67597;SDS011;62026;39.230;9.122;2023-04-01T01:48:50;9.27;;;2.72;;
67597;SDS011;62026;39.230;9.122;2023-04-01T01:51:18;10.75;;;2.85;;
67597;SDS011;62026;39.230;9.122;2023-04-01T01:53:47;10.77;;;2.90;;
67597;SDS011;62026;39.230;9.122;2023-04-01T01:56:15;13.52;;;3.28;;
67597;SDS011;62026;39.230;9.122;2023-04-01T01:59:20;13.70;;;2.75;;
67597;SDS011;62026;39.230;9.122;2023-04-01T02:01:43;12.73;;;3.40;;
67597;SDS011;62026;39.230;9.122;2023-04-01T02:04:18;12.18;;;3.25;;
67597;SDS011;62026;39.230;9.122;2023-04-01T02:06:57;13.63;;;3.47;;
67597;SDS011;62026;39.230;9.122;2023-04-01T02:09:30;11.15;;;2.78;;
67597;SDS011;62026;39.230;9.122;2023-04-01T02:11:57;11.35;;;3.35;;
67597;SDS011;62026;39.230;9.122;2023-04-01T02:17:25;16.88;;;3.50;;
67597;SDS011;62026;39.230;9.122;2023-04-01T02:20:05;15.77;;;3.63;;
67597;SDS011;62026;39.230;9.122;2023-04-01T02:22:46;16.55;;;3.22;;
67597;SDS011;62026;39.230;9.122;2023-04-01T02:25:37;14.82;;;3.22;;
67597;SDS011;62026;39.230;9.122;2023-04-01T02:28:06;10.00;;;2.80;;
67597;SDS011;62026;39.230;9.122;2023-04-01T02:30:35;13.32;;;3.33;;
67597;SDS011;62026;39.230;9.122;2023-04-01T02:33:06;11.65;;;2.85;;
67597;SDS011;62026;39.230;9.122;2023-04-01T02:35:33;10.82;;;3.45;;
67597;SDS011;62026;39.230;9.122;2023-04-01T02:38:02;7.25;;;2.95;;
67597;SDS011;62026;39.230;9.122;2023-04-01T02:40:39;10.90;;;3.40;;
67597;SDS011;62026;39.230;9.122;2023-04-01T02:43:21;11.77;;;3.20;;
67597;SDS011;62026;39.230;9.122;2023-04-01T02:45:48;13.45;;;3.30;;
67597;SDS011;62026;39.230;9.122;2023-04-01T02:48:14;11.88;;;3.17;;
67597;SDS011;62026;39.230;9.122;2023-04-01T02:50:40;11.38;;;3.65;;
67597;SDS011;62026;39.230;9.122;2023-04-01T02:53:06;13.90;;;3.85;;
67597;SDS011;62026;39.230;9.122;2023-04-01T02:55:33;14.13;;;3.30;;
67597;SDS011;62026;39.230;9.122;2023-04-01T02:57:59;17.75;;;4.15;;
67597;SDS011;62026;39.230;9.122;2023-04-01T03:00:27;9.20;;;3.50;;
67597;SDS011;62026;39.230;9.122;2023-04-01T03:02:53;10.63;;;3.47;;
67597;SDS011;62026;39.230;9.122;2023-04-01T03:05:19;12.68;;;3.13;;
67597;SDS011;62026;39.230;9.122;2023-04-01T03:07:46;15.88;;;3.50;;
67597;SDS011;62026;39.230;9.122;2023-04-01T03:10:12;12.15;;;3.20;;
67597;SDS011;62026;39.230;9.122;2023-04-01T03:12:39;13.15;;;3.97;;
67597;SDS011;62026;39.230;9.122;2023-04-01T03:15:05;15.40;;;4.40;;
67597;SDS011;62026;39.230;9.122;2023-04-01T03:17:32;16.05;;;3.45;;
67597;SDS011;62026;39.230;9.122;2023-04-01T03:19:58;13.40;;;3.58;;
67597;SDS011;62026;39.230;9.122;2023-04-01T03:22:24;13.85;;;3.88;;
67597;SDS011;62026;39.230;9.122;2023-04-01T03:24:53;17.98;;;3.72;;
67597;SDS011;62026;39.230;9.122;2023-04-01T03:27:19;15.43;;;4.15;;
67597;SDS011;62026;39.230;9.122;2023-04-01T03:29:45;17.73;;;4.13;;
67597;SDS011;62026;39.230;9.122;2023-04-01T03:32:12;12.85;;;3.95;;
67597;SDS011;62026;39.230;9.122;2023-04-01T03:34:38;12.07;;;3.38;;
67597;SDS011;62026;39.230;9.122;2023-04-01T03:37:04;10.80;;;3.33;;
67597;SDS011;62026;39.230;9.122;2023-04-01T03:39:31;12.43;;;3.47;;
67597;SDS011;62026;39.230;9.122;2023-04-01T03:41:57;11.70;;;3.90;;
67597;SDS011;62026;39.230;9.122;2023-04-01T03:44:24;13.98;;;4.05;;
67597;SDS011;62026;39.230;9.122;2023-04-01T03:46:52;16.25;;;3.78;;
67597;SDS011;62026;39.230;9.122;2023-04-01T03:49:18;17.35;;;3.85;;
67597;SDS011;62026;39.230;9.122;2023-04-01T03:51:44;17.40;;;3.90;;
67597;SDS011;62026;39.230;9.122;2023-04-01T03:54:10;15.95;;;4.32;;
67597;SDS011;62026;39.230;9.122;2023-04-01T03:56:37;14.98;;;4.03;;
67597;SDS011;62026;39.230;9.122;2023-04-01T03:59:04;16.00;;;3.92;;
67597;SDS011;62026;39.230;9.122;2023-04-01T04:01:32;18.23;;;4.50;;
67597;SDS011;62026;39.230;9.122;2023-04-01T04:03:59;16.35;;;4.00;;
67597;SDS011;62026;39.230;9.122;2023-04-01T04:06:26;12.70;;;4.25;;
67597;SDS011;62026;39.230;9.122;2023-04-01T04:08:53;14.75;;;4.10;;
67597;SDS011;62026;39.230;9.122;2023-04-01T04:11:20;17.92;;;3.78;;
67597;SDS011;62026;39.230;9.122;2023-04-01T04:13:49;14.60;;;3.75;;
67597;SDS011;62026;39.230;9.122;2023-04-01T04:16:17;10.20;;;3.83;;
67597;SDS011;62026;39.230;9.122;2023-04-01T04:18:50;11.60;;;3.65;;
67597;SDS011;62026;39.230;9.122;2023-04-01T04:21:16;19.60;;;4.38;;
67597;SDS011;62026;39.230;9.122;2023-04-01T04:23:43;12.40;;;4.07;;
67597;SDS011;62026;39.230;9.122;2023-04-01T04:26:11;16.25;;;4.28;;
67597;SDS011;62026;39.230;9.122;2023-04-01T04:28:40;13.73;;;4.35;;
67597;SDS011;62026;39.230;9.122;2023-04-01T04:31:07;14.45;;;4.75;;
67597;SDS011;62026;39.230;9.122;2023-04-01T04:33:34;16.98;;;4.30;;
67597;SDS011;62026;39.230;9.122;2023-04-01T04:36:01;15.30;;;4.18;;
67597;SDS011;62026;39.230;9.122;2023-04-01T04:38:29;15.60;;;3.53;;
67597;SDS011;62026;39.230;9.122;2023-04-01T04:40:55;16.95;;;4.35;;
67597;SDS011;62026;39.230;9.122;2023-04-01T04:43:24;14.85;;;4.50;;
67597;SDS011;62026;39.230;9.122;2023-04-01T04:45:51;17.58;;;4.20;;
67597;SDS011;62026;39.230;9.122;2023-04-01T04:48:17;14.93;;;4.68;;
67597;SDS011;62026;39.230;9.122;2023-04-01T04:50:45;18.35;;;4.13;;
67597;SDS011;62026;39.230;9.122;2023-04-01T04:53:14;15.68;;;4.13;;
67597;SDS011;62026;39.230;9.122;2023-04-01T04:55:47;13.85;;;3.78;;
67597;SDS011;62026;39.230;9.122;2023-04-01T04:58:32;17.00;;;4.25;;
67597;SDS011;62026;39.230;9.122;2023-04-01T05:01:05;20.25;;;4.85;;
67597;SDS011;62026;39.230;9.122;2023-04-01T05:03:38;19.80;;;4.70;;
67597;SDS011;62026;39.230;9.122;2023-04-01T05:06:05;14.77;;;4.60;;
67597;SDS011;62026;39.230;9.122;2023-04-01T05:08:33;16.25;;;4.38;;
67597;SDS011;62026;39.230;9.122;2023-04-01T05:11:00;16.67;;;4.55;;
67597;SDS011;62026;39.230;9.122;2023-04-01T05:13:28;16.77;;;4.65;;
67597;SDS011;62026;39.230;9.122;2023-04-01T05:15:55;15.38;;;4.32;;
67597;SDS011;62026;39.230;9.122;2023-04-01T05:18:22;16.60;;;4.50;;
67597;SDS011;62026;39.230;9.122;2023-04-01T05:20:48;13.90;;;4.10;;
67597;SDS011;62026;39.230;9.122;2023-04-01T05:23:17;17.50;;;4.18;;
67597;SDS011;62026;39.230;9.122;2023-04-01T05:25:47;17.15;;;4.18;;
67597;SDS011;62026;39.230;9.122;2023-04-01T05:28:15;15.05;;;4.43;;
67597;SDS011;62026;39.230;9.122;2023-04-01T05:30:44;19.73;;;4.03;;
67597;SDS011;62026;39.230;9.122;2023-04-01T05:33:34;14.75;;;3.78;;
67597;SDS011;62026;39.230;9.122;2023-04-01T05:36:08;10.38;;;3.47;;
67597;SDS011;62026;39.230;9.122;2023-04-01T05:38:40;17.05;;;4.63;;
67597;SDS011;62026;39.230;9.122;2023-04-01T05:41:09;16.48;;;4.38;;
67597;SDS011;62026;39.230;9.122;2023-04-01T05:43:39;15.85;;;4.00;;
67597;SDS011;62026;39.230;9.122;2023-04-01T05:46:27;13.25;;;4.30;;
67597;SDS011;62026;39.230;9.122;2023-04-01T05:48:58;13.02;;;4.03;;
67597;SDS011;62026;39.230;9.122;2023-04-01T05:51:26;15.35;;;3.95;;
67597;SDS011;62026;39.230;9.122;2023-04-01T05:53:52;18.75;;;3.88;;
67597;SDS011;62026;39.230;9.122;2023-04-01T05:56:18;14.52;;;3.80;;
67597;SDS011;62026;39.230;9.122;2023-04-01T05:58:50;18.95;;;4.13;;
67597;SDS011;62026;39.230;9.122;2023-04-01T06:01:20;16.77;;;3.90;;
67597;SDS011;62026;39.230;9.122;2023-04-01T06:03:47;12.98;;;3.60;;
67597;SDS011;62026;39.230;9.122;2023-04-01T06:06:13;18.60;;;3.67;;
67597;SDS011;62026;39.230;9.122;2023-04-01T06:08:47;18.20;;;4.30;;
67597;SDS011;62026;39.230;9.122;2023-04-01T06:35:11;13.23;;;2.92;;
67597;SDS011;62026;39.230;9.122;2023-04-01T06:41:06;22.98;;;3.75;;
67597;SDS011;62026;39.230;9.122;2023-04-01T06:44:04;17.23;;;3.35;;
67597;SDS011;62026;39.230;9.122;2023-04-01T06:50:27;12.40;;;3.25;;
67597;SDS011;62026;39.230;9.122;2023-04-01T06:57:08;21.67;;;3.63;;
67597;SDS011;62026;39.230;9.122;2023-04-01T07:00:00;16.67;;;4.28;;
67597;SDS011;62026;39.230;9.122;2023-04-01T07:02:41;13.52;;;3.03;;
67597;SDS011;62026;39.230;9.122;2023-04-01T07:05:23;15.15;;;3.55;;
67597;SDS011;62026;39.230;9.122;2023-04-01T07:07:55;14.23;;;3.20;;
67597;SDS011;62026;39.230;9.122;2023-04-01T07:19:12;15.13;;;3.03;;
67597;SDS011;62026;39.230;9.122;2023-04-01T07:25:20;16.52;;;3.58;;
67597;SDS011;62026;39.230;9.122;2023-04-01T07:28:11;14.50;;;2.65;;
67597;SDS011;62026;39.230;9.122;2023-04-01T07:33:25;16.63;;;2.72;;
67597;SDS011;62026;39.230;9.122;2023-04-01T07:36:19;13.60;;;2.78;;
67597;SDS011;62026;39.230;9.122;2023-04-01T07:45:30;12.65;;;2.90;;
67597;SDS011;62026;39.230;9.122;2023-04-01T07:51:32;13.82;;;3.33;;
67597;SDS011;62026;39.230;9.122;2023-04-01T08:06:16;14.88;;;2.58;;
67597;SDS011;62026;39.230;9.122;2023-04-01T08:09:11;13.70;;;2.33;;
67597;SDS011;62026;39.230;9.122;2023-04-01T08:15:23;15.82;;;2.75;;
67597;SDS011;62026;39.230;9.122;2023-04-01T08:21:15;16.08;;;3.55;;
67597;SDS011;62026;39.230;9.122;2023-04-01T08:23:49;18.08;;;2.60;;
67597;SDS011;62026;39.230;9.122;2023-04-01T08:29:14;11.30;;;2.60;;
67597;SDS011;62026;39.230;9.122;2023-04-01T08:31:55;10.65;;;2.38;;
67597;SDS011;62026;39.230;9.122;2023-04-01T08:34:35;13.90;;;2.40;;
67597;SDS011;62026;39.230;9.122;2023-04-01T08:37:12;16.77;;;2.88;;
67597;SDS011;62026;39.230;9.122;2023-04-01T08:39:55;9.80;;;2.20;;
67597;SDS011;62026;39.230;9.122;2023-04-01T08:45:44;11.80;;;2.20;;
67597;SDS011;62026;39.230;9.122;2023-04-01T08:48:35;12.35;;;2.03;;
67597;SDS011;62026;39.230;9.122;2023-04-01T09:01:43;11.13;;;2.38;;
67597;SDS011;62026;39.230;9.122;2023-04-01T09:08:29;13.30;;;2.15;;
67597;SDS011;62026;39.230;9.122;2023-04-01T09:40:14;11.93;;;2.28;;
67597;SDS011;62026;39.230;9.122;2023-04-01T09:43:06;8.45;;;2.15;;
67597;SDS011;62026;39.230;9.122;2023-04-01T09:46:23;16.08;;;2.17;;
67597;SDS011;62026;39.230;9.122;2023-04-01T10:14:58;9.75;;;1.92;;
67597;SDS011;62026;39.230;9.122;2023-04-01T10:30:09;8.52;;;1.70;;
67597;SDS011;62026;39.230;9.122;2023-04-01T10:42:31;9.73;;;1.88;;
67597;SDS011;62026;39.230;9.122;2023-04-01T11:29:35;12.65;;;2.20;;
67597;SDS011;62026;39.230;9.122;2023-04-01T11:44:58;7.00;;;1.63;;
67597;SDS011;62026;39.230;9.122;2023-04-01T11:56:52;8.23;;;1.75;;
67597;SDS011;62026;39.230;9.122;2023-04-01T12:20:43;11.68;;;2.05;;
67597;SDS011;62026;39.230;9.122;2023-04-01T12:27:31;8.88;;;1.80;;
67597;SDS011;62026;39.230;9.122;2023-04-01T12:35:52;10.50;;;1.50;;
67597;SDS011;62026;39.230;9.122;2023-04-01T12:38:40;6.65;;;1.40;;
67597;SDS011;62026;39.230;9.122;2023-04-01T12:50:01;8.13;;;1.70;;
67597;SDS011;62026;39.230;9.122;2023-04-01T12:59:33;10.27;;;1.60;;
67597;SDS011;62026;39.230;9.122;2023-04-01T13:05:18;7.45;;;1.45;;
67597;SDS011;62026;39.230;9.122;2023-04-01T13:28:28;6.75;;;1.20;;
67597;SDS011;62026;39.230;9.122;2023-04-01T13:34:20;10.82;;;1.80;;
67597;SDS011;62026;39.230;9.122;2023-04-01T13:37:02;10.23;;;1.30;;
67597;SDS011;62026;39.230;9.122;2023-04-01T13:39:49;12.93;;;1.45;;
67597;SDS011;62026;39.230;9.122;2023-04-01T13:42:33;7.18;;;1.77;;
67597;SDS011;62026;39.230;9.122;2023-04-01T13:45:17;7.10;;;1.30;;
67597;SDS011;62026;39.230;9.122;2023-04-01T14:14:45;13.20;;;2.47;;
67597;SDS011;62026;39.230;9.122;2023-04-01T14:40:20;9.73;;;2.05;;
67597;SDS011;62026;39.230;9.122;2023-04-01T14:49:24;12.98;;;2.20;;
67597;SDS011;62026;39.230;9.122;2023-04-01T14:52:13;15.52;;;2.75;;
67597;SDS011;62026;39.230;9.122;2023-04-01T14:54:42;14.40;;;2.53;;
67597;SDS011;62026;39.230;9.122;2023-04-01T14:57:20;15.90;;;2.30;;
67597;SDS011;62026;39.230;9.122;2023-04-01T15:00:00;12.55;;;2.13;;
67597;SDS011;62026;39.230;9.122;2023-04-01T15:02:46;10.05;;;2.20;;
67597;SDS011;62026;39.230;9.122;2023-04-01T15:37:57;14.20;;;2.97;;
67597;SDS011;62026;39.230;9.122;2023-04-01T15:40:43;15.05;;;2.50;;
67597;SDS011;62026;39.230;9.122;2023-04-01T15:46:19;14.75;;;2.05;;
67597;SDS011;62026;39.230;9.122;2023-04-01T15:49:33;18.10;;;4.72;;
67597;SDS011;62026;39.230;9.122;2023-04-01T15:52:23;22.25;;;6.55;;
67597;SDS011;62026;39.230;9.122;2023-04-01T15:55:17;19.10;;;4.78;;
67597;SDS011;62026;39.230;9.122;2023-04-01T16:09:47;7.50;;;2.28;;
67597;SDS011;62026;39.230;9.122;2023-04-01T16:15:14;17.30;;;2.42;;
67597;SDS011;62026;39.230;9.122;2023-04-01T16:20:50;12.88;;;2.55;;
67597;SDS011;62026;39.230;9.122;2023-04-01T16:35:28;12.85;;;3.50;;
67597;SDS011;62026;39.230;9.122;2023-04-01T16:38:08;11.40;;;2.97;;
67597;SDS011;62026;39.230;9.122;2023-04-01T16:46:56;9.00;;;2.15;;
67597;SDS011;62026;39.230;9.122;2023-04-01T16:49:37;12.80;;;2.83;;
67597;SDS011;62026;39.230;9.122;2023-04-01T16:52:15;12.57;;;2.58;;
67597;SDS011;62026;39.230;9.122;2023-04-01T16:57:48;12.82;;;2.78;;
67597;SDS011;62026;39.230;9.122;2023-04-01T17:03:15;13.32;;;2.22;;
67597;SDS011;62026;39.230;9.122;2023-04-01T17:06:24;15.82;;;2.65;;
67597;SDS011;62026;39.230;9.122;2023-04-01T17:12:28;17.85;;;2.40;;
67597;SDS011;62026;39.230;9.122;2023-04-01T17:20:43;12.18;;;3.13;;
67597;SDS011;62026;39.230;9.122;2023-04-01T17:29:03;12.95;;;2.50;;
67597;SDS011;62026;39.230;9.122;2023-04-01T17:31:46;15.27;;;2.25;;
67597;SDS011;62026;39.230;9.122;2023-04-01T17:34:47;8.95;;;1.95;;
67597;SDS011;62026;39.230;9.122;2023-04-01T17:37:36;11.75;;;2.83;;
67597;SDS011;62026;39.230;9.122;2023-04-01T17:46:10;14.88;;;2.90;;
67597;SDS011;62026;39.230;9.122;2023-04-01T17:51:41;13.90;;;2.70;;
67597;SDS011;62026;39.230;9.122;2023-04-01T18:00:28;11.85;;;3.10;;
67597;SDS011;62026;39.230;9.122;2023-04-01T18:28:30;9.38;;;2.22;;
67597;SDS011;62026;39.230;9.122;2023-04-01T18:34:10;12.50;;;2.35;;
67597;SDS011;62026;39.230;9.122;2023-04-01T18:37:00;19.48;;;2.80;;
67597;SDS011;62026;39.230;9.122;2023-04-01T18:40:15;11.73;;;2.53;;
67597;SDS011;62026;39.230;9.122;2023-04-01T18:47:07;14.02;;;2.78;;
67597;SDS011;62026;39.230;9.122;2023-04-01T18:49:21;15.63;;;3.20;;
67597;SDS011;62026;39.230;9.122;2023-04-01T18:52:44;15.98;;;2.63;;
67597;SDS011;62026;39.230;9.122;2023-04-01T19:00:22;14.05;;;2.30;;
67597;SDS011;62026;39.230;9.122;2023-04-01T19:03:16;19.05;;;3.03;;
67597;SDS011;62026;39.230;9.122;2023-04-01T19:05:56;13.45;;;2.78;;
67597;SDS011;62026;39.230;9.122;2023-04-01T19:08:40;12.80;;;2.50;;
67597;SDS011;62026;39.230;9.122;2023-04-01T19:11:14;12.90;;;2.47;;
67597;SDS011;62026;39.230;9.122;2023-04-01T19:14:27;15.80;;;2.58;;
67597;SDS011;62026;39.230;9.122;2023-04-01T19:22:55;12.45;;;2.50;;
67597;SDS011;62026;39.230;9.122;2023-04-01T19:25:57;8.98;;;2.03;;
67597;SDS011;62026;39.230;9.122;2023-04-01T19:28:33;12.73;;;2.40;;
67597;SDS011;62026;39.230;9.122;2023-04-01T19:49:07;17.00;;;2.28;;
67597;SDS011;62026;39.230;9.122;2023-04-01T20:35:23;9.75;;;2.15;;
67597;SDS011;62026;39.230;9.122;2023-04-01T20:46:47;8.38;;;1.95;;
67597;SDS011;62026;39.230;9.122;2023-04-01T20:57:12;11.00;;;2.05;;
67597;SDS011;62026;39.230;9.122;2023-04-01T20:59:55;12.75;;;2.45;;
67597;SDS011;62026;39.230;9.122;2023-04-01T21:09:06;12.63;;;2.10;;
67597;SDS011;62026;39.230;9.122;2023-04-01T21:21:10;15.20;;;3.03;;
67597;SDS011;62026;39.230;9.122;2023-04-01T21:32:36;11.75;;;2.70;;
67597;SDS011;62026;39.230;9.122;2023-04-01T21:35:35;13.70;;;2.90;;
67597;SDS011;62026;39.230;9.122;2023-04-01T21:38:48;11.77;;;3.15;;
67597;SDS011;62026;39.230;9.122;2023-04-01T21:44:57;14.18;;;3.22;;
67597;SDS011;62026;39.230;9.122;2023-04-01T22:02:57;17.88;;;3.20;;
67597;SDS011;62026;39.230;9.122;2023-04-01T22:06:08;12.82;;;3.20;;
67597;SDS011;62026;39.230;9.122;2023-04-01T22:11:15;11.10;;;2.15;;
67597;SDS011;62026;39.230;9.122;2023-04-01T22:14:03;15.40;;;2.40;;
67597;SDS011;62026;39.230;9.122;2023-04-01T22:17:05;11.55;;;2.70;;
67597;SDS011;62026;39.230;9.122;2023-04-01T22:20:16;13.52;;;2.33;;
67597;SDS011;62026;39.230;9.122;2023-04-01T22:22:50;9.60;;;2.30;;
67597;SDS011;62026;39.230;9.122;2023-04-01T22:31:17;17.83;;;2.83;;
67597;SDS011;62026;39.230;9.122;2023-04-01T22:34:01;14.35;;;2.70;;
67597;SDS011;62026;39.230;9.122;2023-04-01T22:42:40;15.93;;;3.05;;
67597;SDS011;62026;39.230;9.122;2023-04-01T23:04:58;10.77;;;2.33;;
67597;SDS011;62026;39.230;9.122;2023-04-01T23:10:30;11.80;;;2.80;;
67597;SDS011;62026;39.230;9.122;2023-04-01T23:13:04;16.40;;;2.88;;
67597;SDS011;62026;39.230;9.122;2023-04-01T23:15:38;16.20;;;2.80;;
67597;SDS011;62026;39.230;9.122;2023-04-01T23:21:12;16.00;;;3.05;;
67597;SDS011;62026;39.230;9.122;2023-04-01T23:27:01;18.35;;;2.58;;
67597;SDS011;62026;39.230;9.122;2023-04-01T23:29:37;15.82;;;2.63;;
67597;SDS011;62026;39.230;9.122;2023-04-01T23:32:18;18.65;;;3.30;;
67597;SDS011;62026;39.230;9.122;2023-04-01T23:34:54;15.57;;;3.03;;
67597;SDS011;62026;39.230;9.122;2023-04-01T23:37:24;14.32;;;3.25;;
67597;SDS011;62026;39.230;9.122;2023-04-01T23:39:55;12.93;;;2.55;;
67597;SDS011;62026;39.230;9.122;2023-04-01T23:42:24;18.85;;;2.40;;
67597;SDS011;62026;39.230;9.122;2023-04-01T23:45:11;14.20;;;2.45;;
67597;SDS011;62026;39.230;9.122;2023-04-01T23:47:45;11.70;;;2.35;;
67597;SDS011;62026;39.230;9.122;2023-04-01T23:50:18;15.70;;;3.72;;
67597;SDS011;62026;39.230;9.122;2023-04-01T23:52:52;15.93;;;2.70;;
67597;SDS011;62026;39.230;9.122;2023-04-01T23:55:40;18.77;;;3.00;;
